Time;durP1;ratioP1;P1;durP2;ratioP2;P2;SDS_P1;SDS_P2;PMS_P1;PMS_P2;Temp;Humidity;BMP_temperature;BMP_pressure;BME280_temperature;BME280_humidity;BME280_pressure;Samples;Min_cycle;Max_cycle;Signal;HPM_P1;HPM_P2
2021/03/23 00:01:15;;;;;;;3.17;1.90;;;;;;;0.06;62.39;98768.28;5039137;28;20029;-58
2021/03/23 00:03:44;;;;;;;2.88;2.03;;;;;;;-0.08;64.06;98735.13;5046524;28;20037;-57
2021/03/23 00:06:13;;;;;;;4.05;2.38;;;;;;;0.25;62.86;98775.19;5046364;28;20323;-57
2021/03/23 00:08:40;;;;;;;2.50;1.92;;;;;;;0.33;64.71;98780.34;5046494;28;20037;-57
2021/03/23 00:11:08;;;;;;;3.47;2.33;;;;;;;0.02;63.90;98729.25;5046101;28;20037;-57
2021/03/23 00:13:36;;;;;;;4.13;2.08;;;;;;;-0.10;64.27;98714.78;5044577;28;20041;-57
2021/03/23 00:16:02;;;;;;;3.30;2.42;;;;;;;0.33;64.16;98773.53;5036275;28;20061;-56
2021/03/23 00:18:28;;;;;;;2.38;2.10;;;;;;;0.36;64.49;98776.94;5046263;28;20033;-57
2021/03/23 00:20:54;;;;;;;3.80;1.92;;;;;;;0.47;65.06;98781.25;5046054;28;20033;-57
2021/03/23 00:23:20;;;;;;;2.72;2.22;;;;;;;0.36;64.38;98785.44;5046067;28;20061;-57
2021/03/23 00:25:46;;;;;;;1.80;1.70;;;;;;;0.21;63.72;98786.19;5045967;28;20100;-58
2021/03/23 00:28:12;;;;;;;3.63;1.90;;;;;;;0.37;64.73;98782.06;5045957;28;20051;-57
2021/03/23 00:30:38;;;;;;;2.22;1.85;;;;;;;0.39;64.30;98771.88;5045988;28;20317;-58
2021/03/23 00:33:04;;;;;;;2.38;1.80;;;;;;;0.41;63.25;98775.28;5045920;28;20060;-57
2021/03/23 00:35:30;;;;;;;3.42;2.28;;;;;;;0.32;63.65;98791.34;5045959;28;20289;-57
2021/03/23 00:37:58;;;;;;;3.67;2.45;;;;;;;0.06;64.07;98756.44;5045796;28;20030;-57
2021/03/23 00:40:29;;;;;;;3.45;2.17;;;;;;;-0.21;63.85;98729.13;5038986;28;20028;-57
2021/03/23 00:42:56;;;;;;;3.83;2.20;;;;;;;0.03;64.72;98807.31;5045617;28;20025;-58
2021/03/23 00:45:23;;;;;;;5.53;2.13;;;;;;;0.01;64.39;98792.88;5045929;28;20040;-57
2021/03/23 00:47:49;;;;;;;3.13;2.10;;;;;;;-0.19;64.81;98796.97;5045682;28;20026;-57
2021/03/23 00:50:15;;;;;;;4.57;2.50;;;;;;;0.06;65.29;98786.97;5045849;28;20036;-57
2021/03/23 00:52:41;;;;;;;2.80;2.15;;;;;;;0.21;65.72;98793.00;5045837;28;20061;-59
2021/03/23 00:55:08;;;;;;;4.18;2.42;;;;;;;0.06;64.73;98803.91;5045536;28;20048;-58
2021/03/23 00:57:34;;;;;;;3.10;2.08;;;;;;;0.02;65.13;98802.22;5045560;28;20316;-58
2021/03/23 01:00:01;;;;;;;2.88;2.35;;;;;;;-0.20;65.46;98804.59;5045499;28;20037;-58
2021/03/23 01:02:28;;;;;;;5.18;2.10;;;;;;;-0.20;66.18;98796.94;5045658;28;20030;-57
2021/03/23 01:04:54;;;;;;;2.40;1.95;;;;;;;0.01;65.79;98803.88;5045225;28;20045;-56
2021/03/23 01:07:21;;;;;;;3.65;2.28;;;;;;;0.02;65.85;98803.06;5049806;28;20044;-57
2021/03/23 01:09:47;;;;;;;2.78;2.15;;;;;;;-0.24;66.01;98803.72;5053484;28;20393;-56
2021/03/23 01:12:13;;;;;;;3.17;2.40;;;;;;;-0.19;65.07;98812.22;5053352;28;20032;-56
2021/03/23 01:14:40;;;;;;;3.08;2.17;;;;;;;-0.30;65.91;98798.59;5052599;28;20359;-58
2021/03/23 01:17:07;;;;;;;2.45;1.90;;;;;;;-0.22;66.32;98814.75;5056741;28;20352;-58
2021/03/23 01:19:33;;;;;;;2.28;1.77;;;;;;;-0.10;66.40;98808.06;5056840;28;20318;-58
2021/03/23 01:22:00;;;;;;;2.50;1.92;;;;;;;-0.25;65.93;98816.44;5046572;28;20199;-57
2021/03/23 01:24:26;;;;;;;3.97;2.08;;;;;;;-0.15;66.14;98813.13;5045305;28;20321;-56
2021/03/23 01:26:52;;;;;;;2.70;2.08;;;;;;;0.04;66.30;98836.16;5053138;28;20063;-56
2021/03/23 01:29:18;;;;;;;2.63;2.20;;;;;;;-0.04;65.71;98828.47;5036666;28;20049;-56
2021/03/23 01:31:44;;;;;;;2.70;2.05;;;;;;;-0.20;65.34;98825.81;5048666;28;20049;-56
2021/03/23 01:34:10;;;;;;;2.92;1.80;;;;;;;-0.11;66.90;98831.81;5058391;28;20279;-56
2021/03/23 01:36:36;;;;;;;2.35;2.00;;;;;;;-0.14;65.95;98831.78;5053015;28;20029;-56
2021/03/23 01:39:03;;;;;;;3.45;2.17;;;;;;;-0.22;66.41;98830.00;5054837;28;20037;-56
2021/03/23 01:41:29;;;;;;;3.90;1.88;;;;;;;-0.25;66.27;98836.78;5044789;28;20230;-56
2021/03/23 01:43:55;;;;;;;3.20;2.20;;;;;;;-0.25;66.59;98834.25;5046036;28;20025;-56
2021/03/23 01:46:47;;;;;;;3.70;2.05;;;;;;;-0.24;67.44;98841.88;5049417;28;20032;-56
2021/03/23 01:49:22;;;;;;;;;;;;;;;-0.31;67.15;98854.53;5045394;28;20030;-55
2021/03/23 01:51:51;;;;;;;2.35;1.90;;;;;;;-0.25;66.70;98865.63;5052691;28;19916;-56
2021/03/23 01:54:25;;;;;;;3.00;1.98;;;;;;;-0.58;67.68;98850.91;5044692;28;20026;-57
2021/03/23 01:56:53;;;;;;;2.95;2.00;;;;;;;-0.59;67.79;98847.50;5044643;28;20342;-56
2021/03/23 01:59:25;;;;;;;2.83;2.00;;;;;;;-0.61;67.31;98866.97;5052794;28;20025;-57
2021/03/23 02:01:52;;;;;;;2.88;2.30;;;;;;;-0.58;67.54;98866.16;5018832;28;20029;-57
2021/03/23 02:04:19;;;;;;;2.05;1.83;;;;;;;-0.58;67.93;98877.19;5055929;28;20025;-57
2021/03/23 02:06:48;;;;;;;4.80;2.20;;;;;;;-1.06;68.05;98824.97;5063341;28;20061;-58
2021/03/23 02:09:23;;;;;;;2.67;1.98;;;;;;;-0.62;68.18;98893.25;5052489;28;20072;-57
2021/03/23 02:12:07;;;;;;;3.90;2.17;;;;;;;-1.26;67.89;98817.97;5044834;28;20029;-56
2021/03/23 02:14:37;;;;;;;3.63;2.10;;;;;;;-1.14;68.07;98826.56;5039159;28;20036;-56
2021/03/23 02:17:16;;;;;;;3.10;2.25;;;;;;;-1.23;68.09;98818.03;5051806;28;20029;-55
2021/03/23 02:19:42;;;;;;;3.22;2.10;;;;;;;-0.72;69.00;98897.38;5044368;28;20185;-55
2021/03/23 02:22:13;;;;;;;2.22;2.03;;;;;;;-0.85;68.57;98900.63;5052323;28;20025;-60
2021/03/23 02:24:39;;;;;;;5.30;2.40;;;;;;;-1.02;69.24;98900.41;5059357;28;20040;-56
2021/03/23 02:27:05;;;;;;;2.30;2.03;;;;;;;-0.86;68.84;98903.97;5033804;28;20032;-56
2021/03/23 02:29:32;;;;;;;3.55;2.50;;;;;;;-0.86;68.91;98903.97;5060329;28;20050;-55
2021/03/23 02:32:00;;;;;;;2.33;2.13;;;;;;;-0.76;68.90;98902.41;5049506;28;20034;-55
2021/03/23 02:34:26;;;;;;;2.75;2.17;;;;;;;-0.74;68.12;98903.25;5058286;28;20021;-55
2021/03/23 02:36:52;;;;;;;2.65;2.22;;;;;;;-0.81;68.59;98909.13;5058010;28;20041;-56
2021/03/23 02:39:22;;;;;;;4.15;2.40;;;;;;;-0.80;68.71;98896.41;5030526;28;20025;-56
2021/03/23 02:41:48;;;;;;;4.00;3.13;;;;;;;-0.69;68.94;98916.88;5037843;28;20052;-56
2021/03/23 02:44:14;;;;;;;6.50;2.40;;;;;;;-0.68;69.23;98912.66;5050782;28;20080;-56
2021/03/23 02:46:40;;;;;;;2.88;2.25;;;;;;;-0.80;68.49;98921.00;5054076;28;20052;-57
2021/03/23 02:49:07;;;;;;;3.88;2.70;;;;;;;-0.84;69.37;98917.56;5055133;28;20037;-57
2021/03/23 02:51:33;;;;;;;3.33;2.40;;;;;;;-0.91;69.50;98913.25;5053288;28;20036;-57
2021/03/23 02:53:59;;;;;;;2.65;2.20;;;;;;;-0.80;70.09;98926.06;5051614;28;20021;-57
2021/03/23 02:56:25;;;;;;;4.55;2.88;;;;;;;-0.90;69.12;98930.19;5051772;28;20096;-57
2021/03/23 02:58:51;;;;;;;2.50;2.03;;;;;;;-0.87;69.16;98914.97;5059769;28;20096;-57
2021/03/23 03:01:17;;;;;;;3.28;2.67;;;;;;;-0.72;69.78;98930.41;5051822;28;20025;-57
2021/03/23 03:03:43;;;;;;;3.45;2.40;;;;;;;-0.83;69.55;98933.66;5039623;28;20037;-57
2021/03/23 03:06:11;;;;;;;6.15;3.17;;;;;;;-1.13;68.95;98881.63;5051834;28;20032;-56
2021/03/23 03:08:37;;;;;;;3.17;2.40;;;;;;;-0.70;70.39;98941.47;5047418;28;20351;-56
2021/03/23 03:11:04;;;;;;;3.47;2.38;;;;;;;-0.74;69.19;98944.81;5057630;28;20334;-57
2021/03/23 03:13:30;;;;;;;4.85;2.80;;;;;;;-0.80;69.04;98931.16;5043726;28;20310;-56
2021/03/23 03:15:56;;;;;;;2.67;2.45;;;;;;;-0.73;69.27;98943.09;5054755;28;20033;-57
2021/03/23 03:18:24;;;;;;;2.45;2.22;;;;;;;-1.27;70.04;98887.41;5057937;28;20071;-57
2021/03/23 03:20:54;;;;;;;3.72;2.72;;;;;;;-1.31;70.34;98885.66;5052125;28;20245;-56
2021/03/23 03:23:20;;;;;;;4.47;2.75;;;;;;;-0.99;70.22;98938.56;5050223;28;20036;-57
2021/03/23 03:25:49;;;;;;;3.85;2.40;;;;;;;-0.81;71.16;98949.78;5049346;28;20082;-57
2021/03/23 03:28:17;;;;;;;2.63;2.40;;;;;;;-0.85;69.07;98959.06;5028268;28;20067;-57
2021/03/23 03:30:42;;;;;;;3.75;2.70;;;;;;;-0.91;70.03;98959.84;5055581;28;20587;-57
2021/03/23 03:33:12;;;;;;;3.75;2.40;;;;;;;-1.15;69.75;98888.41;5050609;28;20033;-56
2021/03/23 03:35:40;;;;;;;4.28;2.85;;;;;;;-0.65;69.27;98976.25;5051796;28;20029;-56
2021/03/23 03:38:07;;;;;;;4.03;2.22;;;;;;;-0.53;70.02;98964.56;5057868;28;20199;-56
2021/03/23 03:40:40;;;;;;;3.65;2.42;;;;;;;-1.04;68.81;98912.25;5052130;28;20045;-56
2021/03/23 03:43:07;;;;;;;2.92;2.55;;;;;;;-0.48;69.76;98976.47;5044633;28;20052;-57
2021/03/23 03:45:34;;;;;;;4.65;2.47;;;;;;;-0.47;68.77;98975.59;5060082;28;20096;-56
2021/03/23 03:48:00;;;;;;;4.50;2.45;;;;;;;-0.47;68.81;98984.13;5056649;28;20032;-56
2021/03/23 03:50:27;;;;;;;2.80;2.42;;;;;;;-1.09;69.44;98919.78;5048594;28;20234;-58
2021/03/23 03:52:54;;;;;;;5.50;3.53;;;;;;;-0.49;70.10;98983.22;5055836;28;20047;-59
2021/03/23 03:55:21;;;;;;;3.13;2.50;;;;;;;-0.80;68.21;98936.25;5057738;28;20057;-58
2021/03/23 03:57:47;;;;;;;4.65;2.92;;;;;;;-0.34;69.20;98980.00;5023797;28;20036;-58
2021/03/23 04:00:19;;;;;;;3.58;2.75;;;;;;;-0.69;68.27;98929.59;5054677;28;20052;-58
2021/03/23 04:02:45;;;;;;;3.08;2.25;;;;;;;-0.48;67.35;98979.00;5045637;28;20037;-58
2021/03/23 04:05:26;;;;;;;3.58;2.30;;;;;;;-0.35;68.11;98986.78;5049798;28;20033;-58
2021/03/23 04:07:52;;;;;;;2.75;2.53;;;;;;;-0.35;68.33;98996.94;5065713;28;20051;-58
2021/03/23 04:10:19;;;;;;;2.42;2.17;;;;;;;-0.27;68.29;99022.50;5057856;28;20025;-59
2021/03/23 04:12:46;;;;;;;2.33;2.10;;;;;;;-0.23;68.49;99011.53;5055429;28;20573;-58
2021/03/23 04:15:18;;;;;;;5.95;2.60;;;;;;;-0.25;68.06;99013.19;5046516;28;20060;-58
2021/03/23 04:17:44;;;;;;;3.42;2.40;;;;;;;-0.21;68.19;99017.47;5044478;28;20037;-58
2021/03/23 04:20:10;;;;;;;3.83;2.67;;;;;;;-0.15;67.40;99024.31;5049587;28;20034;-59
2021/03/23 04:22:36;;;;;;;3.00;2.20;;;;;;;-0.11;66.63;99025.22;5052428;28;20129;-59
2021/03/23 04:25:03;;;;;;;4.70;2.58;;;;;;;-0.05;67.78;99045.63;5049358;28;20041;-60
2021/03/23 04:27:29;;;;;;;5.22;2.78;;;;;;;-0.25;66.84;99028.44;5044344;28;20025;-60
2021/03/23 04:29:54;;;;;;;3.60;2.50;;;;;;;-0.02;67.26;99027.84;5054822;28;20413;-60
2021/03/23 04:32:20;;;;;;;3.80;2.72;;;;;;;0.01;67.09;99030.41;5058928;28;20370;-60
2021/03/23 04:35:00;;;;;;;3.33;2.33;;;;;;;0.08;66.47;99031.34;5037852;28;20195;-59
2021/03/23 04:37:26;;;;;;;3.65;2.70;;;;;;;0.13;66.35;99028.00;5051672;28;20055;-60
2021/03/23 04:39:51;;;;;;;5.45;2.60;;;;;;;0.25;66.94;99034.06;5046647;28;20041;-60
2021/03/23 04:42:17;;;;;;;3.28;2.42;;;;;;;0.24;66.81;99037.44;5045736;28;20041;-59
2021/03/23 04:44:43;;;;;;;3.63;2.85;;;;;;;0.11;67.07;99047.47;5044956;28;20033;-60
2021/03/23 04:47:09;;;;;;;4.13;2.50;;;;;;;0.00;66.61;99046.53;5060619;28;20036;-60
2021/03/23 04:49:34;;;;;;;4.90;2.92;;;;;;;0.13;67.19;99050.91;5031602;28;20311;-60
2021/03/23 04:52:00;;;;;;;3.80;2.63;;;;;;;0.29;66.79;99056.16;5052527;28;20041;-61
2021/03/23 04:54:26;;;;;;;3.53;2.83;;;;;;;0.06;66.71;99058.44;5065145;28;20088;-60
2021/03/23 04:56:52;;;;;;;4.55;2.75;;;;;;;-0.01;67.41;99058.41;5057096;28;20108;-60
2021/03/23 04:59:18;;;;;;;3.45;2.95;;;;;;;-0.28;67.50;99063.19;5057220;28;20092;-59
2021/03/23 05:01:44;;;;;;;4.05;2.67;;;;;;;-0.14;67.60;99070.97;5057094;28;20030;-59
2021/03/23 05:04:15;;;;;;;4.15;2.38;;;;;;;-0.30;66.58;99027.56;5048733;28;20040;-59
2021/03/23 05:06:41;;;;;;;2.47;2.15;;;;;;;0.01;66.74;99073.69;5065076;28;20036;-59
2021/03/23 05:09:07;;;;;;;3.25;2.60;;;;;;;0.05;67.32;99084.75;5053883;28;20083;-60
2021/03/23 05:11:34;;;;;;;2.67;2.33;;;;;;;0.21;65.74;99101.91;5051453;28;20309;-59
2021/03/23 05:14:02;;;;;;;2.75;2.55;;;;;;;0.34;66.16;99088.47;5056283;28;20060;-59
2021/03/23 05:16:28;;;;;;;3.20;2.60;;;;;;;0.34;66.19;99070.66;5059277;28;20029;-60
2021/03/23 05:18:54;;;;;;;4.05;3.22;;;;;;;0.42;65.60;99096.19;5034013;28;20037;-59
2021/03/23 05:21:21;;;;;;;3.08;2.55;;;;;;;0.46;66.46;99102.16;5049317;28;20214;-59
2021/03/23 05:23:47;;;;;;;3.25;2.80;;;;;;;0.37;65.36;99102.06;5063367;28;20033;-59
2021/03/23 05:26:12;;;;;;;3.05;2.72;;;;;;;0.29;64.69;99104.53;5047393;28;20033;-60
2021/03/23 05:28:38;;;;;;;6.32;3.40;;;;;;;0.33;64.62;99106.28;5048474;28;20144;-60
2021/03/23 05:31:05;;;;;;;3.92;2.85;;;;;;;0.38;64.85;99094.44;5026115;28;20075;-60
2021/03/23 05:33:32;;;;;;;5.10;3.33;;;;;;;0.01;64.85;99106.78;5039767;28;20270;-61
2021/03/23 05:35:58;;;;;;;3.88;2.42;;;;;;;0.20;65.80;99118.03;5034049;28;20033;-60
2021/03/23 05:38:28;;;;;;;4.68;3.10;;;;;;;0.41;65.58;99114.84;5056377;28;20217;-60
2021/03/23 05:41:13;;;;;;;3.53;3.08;;;;;;;0.45;64.51;99123.38;5023141;28;20335;-60
2021/03/23 05:43:42;;;;;;;4.43;3.08;;;;;;;0.47;65.32;99132.75;5031362;28;20038;-61
2021/03/23 05:46:37;;;;;;;4.82;3.45;;;;;;;0.34;65.20;99136.88;5055777;28;20032;-60
2021/03/23 05:49:11;;;;;;;4.05;3.20;;;;;;;0.42;63.57;99149.66;5032022;28;20041;-60
2021/03/23 05:51:45;;;;;;;4.47;2.80;;;;;;;0.54;63.45;99165.91;5014996;28;20033;-61
2021/03/23 05:54:51;;;;;;;3.95;3.20;;;;;;;0.55;63.38;99171.03;5048490;28;20043;-60
2021/03/23 05:57:34;;;;;;;2.60;2.22;;;;;;;0.47;63.83;99163.31;5036846;28;20057;-60
2021/03/23 06:00:21;;;;;;;4.32;3.00;;;;;;;0.22;64.15;99102.78;5052637;28;20033;-61
2021/03/23 06:03:18;;;;;;;5.40;3.45;;;;;;;0.41;63.96;99147.94;5040101;28;20283;-59
2021/03/23 06:05:57;;;;;;;5.38;3.22;;;;;;;0.84;63.36;99185.75;5052813;28;20033;-60
2021/03/23 06:08:30;;;;;;;4.75;2.92;;;;;;;0.98;63.00;99180.78;5043428;28;20260;-59
2021/03/23 06:11:04;;;;;;;4.40;3.38;;;;;;;1.40;62.59;99182.00;5043946;28;20029;-59
2021/03/23 06:13:40;;;;;;;3.90;3.35;;;;;;;1.14;62.42;99197.06;5043934;28;20033;-59
2021/03/23 06:16:43;;;;;;;4.20;2.92;;;;;;;1.34;62.93;99192.13;5043823;28;20373;-58
2021/03/23 06:19:43;;;;;;;3.72;2.83;;;;;;;1.21;61.70;99193.72;5043679;28;20034;-57
2021/03/23 06:22:31;;;;;;;5.03;3.03;;;;;;;1.17;60.86;99192.03;5043473;28;20314;-58
2021/03/23 06:25:24;;;;;;;3.83;2.80;;;;;;;1.18;61.64;99201.34;5043739;28;20213;-58
2021/03/23 06:28:00;;;;;;;3.95;2.67;;;;;;;0.83;62.18;99179.81;5043641;28;20022;-58
2021/03/23 06:30:50;;;;;;;5.00;3.47;;;;;;;1.06;61.22;99204.66;5043552;28;20044;-57
2021/03/23 06:33:20;;;;;;;6.30;3.40;;;;;;;1.17;62.14;99184.38;5034331;28;20033;-57
2021/03/23 06:35:52;;;;;;;4.30;2.85;;;;;;;1.27;62.34;99191.25;5035980;28;20114;-57
2021/03/23 06:38:34;;;;;;;3.85;2.70;;;;;;;1.65;62.51;99218.72;5036142;28;20029;-56
2021/03/23 06:41:14;;;;;;;4.55;3.03;;;;;;;1.74;61.22;99202.66;5043473;28;20033;-56
2021/03/23 06:43:47;;;;;;;6.10;3.30;;;;;;;1.61;59.52;99149.78;5040467;28;20029;-56
2021/03/23 06:46:21;;;;;;;5.38;3.20;;;;;;;2.03;58.80;99201.94;5030755;28;20096;-56
2021/03/23 06:49:17;;;;;;;3.03;2.38;;;;;;;1.85;60.15;99147.41;5041852;28;20044;-56
2021/03/23 06:52:00;;;;;;;3.28;2.47;;;;;;;1.96;57.35;99205.31;5043262;28;20051;-57
2021/03/23 06:54:39;;;;;;;5.97;2.90;;;;;;;1.45;59.15;99216.03;5037080;28;20052;-57
2021/03/23 06:57:16;;;;;;;3.05;2.63;;;;;;;1.42;58.81;99226.22;5031965;28;20072;-56
2021/03/23 07:00:00;;;;;;;2.30;2.00;;;;;;;1.30;58.00;99158.13;5038891;28;20029;-56
2021/03/23 07:03:10;;;;;;;3.47;2.65;;;;;;;2.42;56.22;99221.72;5040541;28;20045;-57
2021/03/23 07:05:39;;;;;;;2.95;2.53;;;;;;;1.76;56.86;99162.66;5001925;28;20326;-56
2021/03/23 07:08:07;;;;;;;2.70;2.42;;;;;;;2.40;56.03;99218.28;5036612;28;20051;-57
2021/03/23 07:10:34;;;;;;;2.78;2.13;;;;;;;1.94;56.38;99219.75;5036909;28;20065;-57
2021/03/23 07:13:01;;;;;;;2.30;2.10;;;;;;;2.18;55.68;99207.16;5042079;28;20033;-57
2021/03/23 07:15:33;;;;;;;2.88;2.08;;;;;;;1.78;56.12;99166.09;5042649;28;20044;-57
2021/03/23 07:18:04;;;;;;;3.22;2.13;;;;;;;2.51;55.06;99233.69;5040158;28;20037;-57
2021/03/23 07:20:33;;;;;;;3.05;1.80;;;;;;;2.54;55.20;99241.34;5042983;28;20056;-56
2021/03/23 07:23:01;;;;;;;1.92;1.73;;;;;;;1.82;53.86;99261.41;5042649;28;20071;-56
2021/03/23 07:25:30;;;;;;;2.05;1.60;;;;;;;1.40;55.17;99245.78;5042249;28;20025;-56
2021/03/23 07:28:22;;;;;;;2.65;2.00;;;;;;;1.87;55.42;99246.97;5036431;28;20231;-56
2021/03/23 07:31:01;;;;;;;5.70;2.13;;;;;;;1.98;54.86;99237.69;5032697;28;20044;-57
2021/03/23 07:33:53;;;;;;;2.75;2.38;;;;;;;1.98;55.06;99249.59;5037357;28;20096;-56
2021/03/23 07:36:45;;;;;;;2.90;2.10;;;;;;;1.20;56.06;99210.75;5037485;28;20030;-56
2021/03/23 07:39:24;;;;;;;3.13;2.13;;;;;;;1.83;56.47;99258.84;5017565;28;20101;-56
2021/03/23 07:42:28;;;;;;;2.95;2.40;;;;;;;2.11;56.53;99261.59;5042398;28;20030;-56
2021/03/23 07:45:06;;;;;;;2.33;2.05;;;;;;;1.73;56.00;99250.28;4999663;28;20038;-56
2021/03/23 07:48:08;;;;;;;1.70;1.60;;;;;;;1.54;55.17;99263.75;5030600;28;20325;-57
2021/03/23 07:50:40;;;;;;;3.38;2.03;;;;;;;2.15;55.98;99267.56;5030392;28;20041;-57
2021/03/23 07:53:28;;;;;;;1.33;1.20;;;;;;;1.46;53.67;99273.88;5033205;28;20238;-56
2021/03/23 07:56:06;;;;;;;3.13;1.67;;;;;;;1.67;53.44;99280.03;5037501;28;20045;-57
2021/03/23 07:58:50;;;;;;;2.17;1.60;;;;;;;1.90;54.68;99278.47;5028384;28;20041;-56
2021/03/23 08:01:27;;;;;;;7.53;1.85;;;;;;;1.97;54.32;99278.53;5039700;28;20034;-56
2021/03/23 08:04:02;;;;;;;3.25;1.95;;;;;;;2.18;53.95;99280.34;5036597;28;20044;-56
2021/03/23 08:06:54;;;;;;;2.40;1.85;;;;;;;1.59;54.60;99296.97;5044313;28;20049;-56
2021/03/23 08:09:43;;;;;;;3.63;1.75;;;;;;;1.76;54.96;99292.00;5040901;28;20059;-56
2021/03/23 08:12:18;;;;;;;3.83;2.45;;;;;;;2.05;54.78;99297.28;5041454;28;20059;-56
2021/03/23 08:14:50;;;;;;;3.13;1.95;;;;;;;2.09;54.62;99293.06;5051631;28;20295;-56
2021/03/23 08:17:34;;;;;;;2.10;1.50;;;;;;;2.13;54.97;99265.00;5046231;28;20029;-56
2021/03/23 08:20:17;;;;;;;3.40;2.00;;;;;;;2.15;54.00;99303.31;5046320;28;20342;-56
2021/03/23 08:23:16;;;;;;;4.75;2.40;;;;;;;2.21;54.79;99299.13;5039528;28;20080;-56
2021/03/23 08:25:47;;;;;;;6.05;2.15;;;;;;;2.07;54.45;99236.88;5051953;28;20036;-57
2021/03/23 08:28:39;;;;;;;2.50;2.00;;;;;;;2.35;53.41;99300.88;5042459;28;20032;-56
2021/03/23 08:31:17;;;;;;;2.20;2.00;;;;;;;2.04;53.52;99316.88;5049328;28;20118;-56
2021/03/23 08:33:43;;;;;;;3.45;2.63;;;;;;;2.13;54.14;99312.69;5045176;28;20075;-56
2021/03/23 08:36:21;;;;;;;2.97;1.92;;;;;;;1.63;54.41;99314.00;5042991;28;20041;-57
2021/03/23 08:38:53;;;;;;;5.18;2.30;;;;;;;1.91;55.39;99320.19;5050956;28;20052;-56
2021/03/23 08:41:27;;;;;;;3.33;2.40;;;;;;;2.00;54.59;99327.06;5035794;28;20041;-56
2021/03/23 08:43:53;;;;;;;7.57;2.42;;;;;;;2.08;54.88;99333.06;5044734;28;20048;-55
2021/03/23 08:46:27;;;;;;;4.38;2.15;;;;;;;2.19;54.39;99341.66;5047259;28;20031;-56
2021/03/23 08:49:01;;;;;;;4.97;2.40;;;;;;;1.97;55.03;99334.72;5060439;28;20356;-56
2021/03/23 08:51:29;;;;;;;4.70;2.05;;;;;;;1.61;54.61;99260.41;5053532;28;20029;-56
2021/03/23 08:54:02;;;;;;;4.22;2.22;;;;;;;1.61;53.95;99296.13;5051936;28;20033;-56
2021/03/23 08:56:51;;;;;;;2.28;1.90;;;;;;;1.52;55.13;99341.97;5058904;28;20037;-56
2021/03/23 08:59:32;;;;;;;3.13;2.42;;;;;;;2.06;54.75;99338.16;5028690;28;20091;-56
2021/03/23 09:01:58;;;;;;;2.17;1.93;;;;;;;2.33;54.85;99341.75;5046575;28;20060;-56
2021/03/23 09:04:31;;;;;;;3.00;2.00;;;;;;;2.06;53.45;99276.03;5054073;28;20382;-56
2021/03/23 09:07:19;;;;;;;3.40;2.20;;;;;;;1.98;51.97;99288.75;5040274;28;20045;-57
2021/03/23 09:09:49;;;;;;;5.53;2.40;;;;;;;2.05;52.39;99289.63;5040992;28;20068;-56
2021/03/23 09:12:46;;;;;;;5.03;1.90;;;;;;;2.55;51.47;99355.53;5036773;28;20060;-55
2021/03/23 09:15:24;;;;;;;3.17;1.85;;;;;;;1.92;51.99;99361.91;5030985;28;20311;-55
2021/03/23 09:18:02;;;;;;;3.53;2.25;;;;;;;1.85;52.26;99354.19;5044627;28;20037;-56
2021/03/23 09:20:31;;;;;;;2.53;1.85;;;;;;;2.05;51.15;99348.38;5027317;28;20036;-56
2021/03/23 09:23:15;;;;;;;3.55;2.03;;;;;;;1.95;51.10;99350.00;5044516;28;20037;-56
2021/03/23 09:25:56;;;;;;;4.55;1.80;;;;;;;1.66;52.14;99298.72;5044529;28;20372;-56
2021/03/23 09:28:34;;;;;;;1.95;1.60;;;;;;;1.75;50.74;99359.19;5044772;28;20030;-56
2021/03/23 09:31:02;;;;;;;3.47;2.55;;;;;;;1.32;50.78;99317.13;5043100;28;20370;-56
2021/03/23 09:33:32;;;;;;;2.70;1.52;;;;;;;1.39;51.33;99305.28;5044798;28;20451;-56
2021/03/23 09:36:04;;;;;;;1.60;1.40;;;;;;;2.12;50.63;99372.28;5044451;28;20056;-56
2021/03/23 09:38:36;;;;;;;1.80;1.10;;;;;;;2.06;49.28;99376.47;5044384;28;20041;-56
2021/03/23 09:41:05;;;;;;;3.58;1.30;;;;;;;1.95;48.45;99378.09;5044504;28;20100;-56
2021/03/23 09:43:33;;;;;;;2.08;1.05;;;;;;;1.97;47.41;99378.13;5044323;28;20033;-56
2021/03/23 09:46:23;;;;;;;3.35;1.45;;;;;;;1.80;47.84;99317.56;5038892;28;20087;-57
2021/03/23 09:48:54;;;;;;;3.22;1.30;;;;;;;2.18;49.22;99392.75;5043843;28;20086;-57
2021/03/23 09:51:34;;;;;;;1.90;1.42;;;;;;;1.97;49.49;99385.78;5035865;28;20029;-55
2021/03/23 09:54:00;;;;;;;2.45;1.48;;;;;;;1.91;49.34;99384.03;5042396;28;20119;-56
2021/03/23 09:56:37;;;;;;;4.40;1.10;;;;;;;2.05;49.72;99396.91;5043899;28;20294;-55
2021/03/23 09:59:07;;;;;;;2.05;1.40;;;;;;;2.21;50.76;99385.97;5043547;28;20063;-56
2021/03/23 10:01:35;;;;;;;8.40;2.13;;;;;;;2.00;48.95;99391.75;5036512;28;20323;-56
2021/03/23 10:04:03;;;;;;;1.88;1.40;;;;;;;2.11;48.15;99403.75;5043928;28;20030;-57
2021/03/23 10:06:44;;;;;;;1.50;1.40;;;;;;;1.61;48.12;99331.88;5041116;28;20222;-56
2021/03/23 10:09:10;;;;;;;1.80;1.58;;;;;;;2.18;47.46;99395.28;5043742;28;20092;-55
2021/03/23 10:11:43;;;;;;;5.15;1.48;;;;;;;1.97;48.14;99334.72;5044090;28;20033;-56
2021/03/23 10:14:18;;;;;;;1.40;1.30;;;;;;;2.44;48.08;99409.97;5035529;28;20029;-57
2021/03/23 10:16:44;;;;;;;1.67;1.20;;;;;;;2.53;48.86;99412.59;5034697;28;20100;-56
2021/03/23 10:19:24;;;;;;;1.05;0.98;;;;;;;2.15;48.41;99354.41;5043772;28;20034;-56
2021/03/23 10:21:52;;;;;;;2.95;1.30;;;;;;;2.57;48.55;99434.78;5042679;28;20096;-56
2021/03/23 10:24:26;;;;;;;2.40;1.33;;;;;;;2.15;49.51;99360.38;5042452;28;20037;-57
2021/03/23 10:26:54;;;;;;;1.92;1.30;;;;;;;2.08;48.87;99366.25;5024844;28;20036;-56
2021/03/23 10:29:26;;;;;;;3.80;1.40;;;;;;;2.45;49.88;99429.56;5042468;28;20330;-57
2021/03/23 10:31:52;;;;;;;;;;;;;;;2.55;49.38;99431.34;5042831;28;20037;-58
2021/03/23 10:34:24;;;;;;;3.25;1.80;;;;;;;2.74;49.94;99428.06;5033717;28;19904;-57
2021/03/23 10:36:54;;;;;;;1.80;1.55;;;;;;;2.67;49.45;99433.13;5033972;28;20033;-57
2021/03/23 10:39:41;;;;;;;4.35;1.60;;;;;;;2.47;48.44;99425.34;5038624;28;20052;-56
2021/03/23 10:42:23;;;;;;;1.92;1.55;;;;;;;2.54;48.69;99427.94;5042238;28;20333;-57
2021/03/23 10:44:51;;;;;;;2.53;2.03;;;;;;;1.93;48.39;99371.28;5042944;28;20033;-56
2021/03/23 10:47:39;;;;;;;2.42;1.85;;;;;;;2.25;48.19;99432.81;5043272;28;20032;-56
2021/03/23 10:50:23;;;;;;;1.70;1.48;;;;;;;2.48;50.38;99452.59;5040185;28;20262;-57
2021/03/23 10:52:50;;;;;;;2.33;1.27;;;;;;;2.16;48.51;99433.59;5040109;28;20056;-56
2021/03/23 10:55:19;;;;;;;1.63;1.20;;;;;;;2.26;49.49;99442.19;5043197;28;20037;-56
2021/03/23 10:57:46;;;;;;;2.50;1.50;;;;;;;2.36;50.13;99441.44;5043251;28;20185;-56
2021/03/23 11:00:19;;;;;;;1.45;1.35;;;;;;;2.47;49.68;99464.53;5038638;28;20026;-56
2021/03/23 11:02:45;;;;;;;5.22;1.10;;;;;;;2.31;49.07;99445.66;5043137;28;20030;-58
2021/03/23 11:05:15;;;;;;;1.30;1.20;;;;;;;2.00;49.29;99390.91;5036739;28;20034;-56
2021/03/23 11:07:58;;;;;;;3.35;1.42;;;;;;;2.33;50.65;99449.06;5035005;28;20132;-57
2021/03/23 11:10:28;;;;;;;4.72;1.83;;;;;;;1.92;49.33;99472.53;5036726;28;20033;-57
2021/03/23 11:12:54;;;;;;;2.85;1.90;;;;;;;1.99;49.71;99453.88;5042867;28;20230;-56
2021/03/23 11:15:19;;;;;;;1.98;1.30;;;;;;;2.06;48.55;99453.09;5043104;28;20033;-56
2021/03/23 11:17:49;;;;;;;6.70;2.20;;;;;;;1.95;48.68;99464.91;5043007;28;20038;-56
2021/03/23 11:20:36;;;;;;;2.17;1.77;;;;;;;1.87;47.12;99397.63;5035632;28;20079;-57
2021/03/23 11:23:05;;;;;;;5.00;2.83;;;;;;;2.36;48.35;99443.97;5043163;28;20029;-57
2021/03/23 11:25:32;;;;;;;2.67;2.10;;;;;;;2.42;48.30;99450.84;5039137;28;20065;-56
2021/03/23 11:28:02;;;;;;;1.95;1.75;;;;;;;2.42;47.77;99443.16;5041473;28;20076;-56
2021/03/23 11:30:28;;;;;;;3.88;2.08;;;;;;;2.72;47.77;99451.91;5042840;28;20215;-56
2021/03/23 11:32:54;;;;;;;3.80;2.10;;;;;;;2.78;47.99;99444.28;5042818;28;20052;-55
2021/03/23 11:35:20;;;;;;;2.60;2.20;;;;;;;2.99;46.06;99442.69;5042648;28;20262;-57
2021/03/23 11:37:46;;;;;;;3.65;2.28;;;;;;;2.54;46.45;99450.94;5041467;28;20051;-56
2021/03/23 11:40:18;;;;;;;3.72;2.75;;;;;;;2.27;45.36;99440.50;5029110;28;20030;-57
2021/03/23 11:42:47;;;;;;;6.10;2.85;;;;;;;2.34;47.43;99386.91;5027386;28;20051;-57
2021/03/23 11:45:28;;;;;;;3.33;2.63;;;;;;;2.84;47.92;99448.59;5037430;28;20310;-57
2021/03/23 11:47:59;;;;;;;4.93;2.70;;;;;;;2.85;46.17;99446.03;5033065;28;20034;-57
2021/03/23 11:50:28;;;;;;;5.47;2.92;;;;;;;2.35;46.14;99397.97;5036872;28;20052;-56
2021/03/23 11:52:55;;;;;;;5.70;3.00;;;;;;;2.48;46.69;99461.13;5046676;28;20036;-57
2021/03/23 11:55:40;;;;;;;4.57;2.88;;;;;;;2.27;47.15;99417.50;5037207;28;20047;-56
2021/03/23 11:58:08;;;;;;;5.63;3.38;;;;;;;2.65;47.46;99473.16;5043207;28;21046;-56
2021/03/23 12:00:35;;;;;;;6.72;3.58;;;;;;;2.79;46.76;99470.72;5045231;28;20037;-57
2021/03/23 12:03:03;;;;;;;7.28;3.47;;;;;;;2.89;46.92;99475.91;5046063;28;20033;-56